map of DTN home
DTN - Airport
Location
City:  Shreveport, Louisiana, United States
Name:Shreveport Downtown Airport
ICAO:KDTN
IATA:DTN
FAA LID:DTN

Details
Type:Airport (Airfield)
Use:Public/Civil
Latitude:3232'25"N (32.540219)
Longitude:9344'42"W (-93.745022)
Datum:WGS 1984
Elevation:179 ft (55 m)
Variation:1.38E (WMM2015 magnetic declination)
-0.11 annual change
Runways:2
Longest:5018 × 150 ft (1529 × 45.5 m), paved

Time
Time Zone:UTC-6 (DST-5)
Local Time:

Weather
METAR:KDTN 140853Z AUTO 11003KT 10SM CLR 03/M01 A2992 RMK AO2 SLP131 T00331006 56003

Related Locations
Nearby:
Farthest:CCK: 10880 mi / 17510 km
West Island (Pulau Panjang) [Cocos (Keeling) Islands], CC

Find:

   beyond  
but within

Other Information
Maps:
NOTAMs:
Links:
Sources:

  
flag of United States
flag of Louisiana
  

Airport Diagram

Airport diagram for DTN

Airport diagram PDF

Sectional Chart

Flight Planning
at skyvector.com

Satellite Image

Google Maps Satellite view

 

Copyright © 2004-2017 Karl L. Swartz. All rights reserved.
The Great Circle Mapper name and logo are trademarks of the Great Circle Mapper.
All other trademarks mentioned herein belong to their respective owners.
Please see credits for attibutions and further copyright information.

  Follow gcmap on Facebook Follow gcmap on Twitter Follow gcmap on Google+ GCmap on LinkedIn

hCard Microformat

Geo Microformat